sensor_id;sensor_type;location;lat;lon;timestamp;P1;durP1;ratioP1;P2;durP2;ratioP2
10416;SDS011;62605;49.432;8.680;2023-03-16T00:07:19;3.77;;;2.10;;
10416;SDS011;62605;49.432;8.680;2023-03-16T00:10:21;3.90;;;2.50;;
10416;SDS011;62605;49.432;8.680;2023-03-16T00:13:03;3.37;;;2.63;;
10416;SDS011;62605;49.432;8.680;2023-03-16T00:16:01;4.57;;;2.50;;
10416;SDS011;62605;49.432;8.680;2023-03-16T00:19:12;4.10;;;2.83;;
10416;SDS011;62605;49.432;8.680;2023-03-16T00:21:55;7.00;;;3.43;;
10416;SDS011;62605;49.432;8.680;2023-03-16T00:24:28;4.27;;;2.73;;
10416;SDS011;62605;49.432;8.680;2023-03-16T00:27:07;3.20;;;2.73;;
10416;SDS011;62605;49.432;8.680;2023-03-16T00:29:49;6.80;;;3.57;;
10416;SDS011;62605;49.432;8.680;2023-03-16T00:32:41;4.40;;;2.90;;
10416;SDS011;62605;49.432;8.680;2023-03-16T00:35:11;7.53;;;3.17;;
10416;SDS011;62605;49.432;8.680;2023-03-16T00:43:27;4.87;;;3.53;;
10416;SDS011;62605;49.432;8.680;2023-03-16T00:46:17;5.57;;;3.97;;
10416;SDS011;62605;49.432;8.680;2023-03-16T00:49:16;6.03;;;3.73;;
10416;SDS011;62605;49.432;8.680;2023-03-16T00:51:58;6.13;;;3.43;;
10416;SDS011;62605;49.432;8.680;2023-03-16T00:54:45;7.83;;;3.83;;
10416;SDS011;62605;49.432;8.680;2023-03-16T00:57:28;4.47;;;3.03;;
10416;SDS011;62605;49.432;8.680;2023-03-16T01:03:23;5.73;;;3.30;;
10416;SDS011;62605;49.432;8.680;2023-03-16T01:06:09;5.70;;;3.80;;
10416;SDS011;62605;49.432;8.680;2023-03-16T01:08:46;4.33;;;3.23;;
10416;SDS011;62605;49.432;8.680;2023-03-16T01:11:38;8.53;;;4.00;;
10416;SDS011;62605;49.432;8.680;2023-03-16T01:19:35;5.93;;;3.30;;
10416;SDS011;62605;49.432;8.680;2023-03-16T01:22:19;6.80;;;4.10;;
10416;SDS011;62605;49.432;8.680;2023-03-16T01:25:01;5.43;;;3.50;;
10416;SDS011;62605;49.432;8.680;2023-03-16T01:36:25;4.57;;;3.10;;
10416;SDS011;62605;49.432;8.680;2023-03-16T01:39:13;5.93;;;3.83;;
10416;SDS011;62605;49.432;8.680;2023-03-16T01:42:01;7.50;;;3.50;;
10416;SDS011;62605;49.432;8.680;2023-03-16T01:44:50;3.43;;;2.77;;
10416;SDS011;62605;49.432;8.680;2023-03-16T01:47:35;3.57;;;2.77;;
10416;SDS011;62605;49.432;8.680;2023-03-16T01:53:33;4.53;;;3.40;;
10416;SDS011;62605;49.432;8.680;2023-03-16T01:56:23;4.90;;;3.70;;
10416;SDS011;62605;49.432;8.680;2023-03-16T01:58:58;5.47;;;3.63;;
10416;SDS011;62605;49.432;8.680;2023-03-16T02:01:43;6.90;;;3.20;;
10416;SDS011;62605;49.432;8.680;2023-03-16T02:04:48;7.83;;;3.93;;
10416;SDS011;62605;49.432;8.680;2023-03-16T02:07:23;4.97;;;3.93;;
10416;SDS011;62605;49.432;8.680;2023-03-16T02:19:43;6.50;;;3.33;;
10416;SDS011;62605;49.432;8.680;2023-03-16T02:22:36;6.30;;;3.73;;
10416;SDS011;62605;49.432;8.680;2023-03-16T02:28:32;3.67;;;2.90;;
10416;SDS011;62605;49.432;8.680;2023-03-16T02:31:19;3.30;;;2.80;;
10416;SDS011;62605;49.432;8.680;2023-03-16T02:33:57;8.03;;;3.17;;
10416;SDS011;62605;49.432;8.680;2023-03-16T02:36:28;4.27;;;3.40;;
10416;SDS011;62605;49.432;8.680;2023-03-16T02:39:04;5.63;;;3.30;;
10416;SDS011;62605;49.432;8.680;2023-03-16T02:41:53;3.37;;;2.67;;
10416;SDS011;62605;49.432;8.680;2023-03-16T02:44:39;4.63;;;3.63;;
10416;SDS011;62605;49.432;8.680;2023-03-16T02:47:32;4.90;;;2.53;;
10416;SDS011;62605;49.432;8.680;2023-03-16T02:50:28;3.60;;;3.07;;
10416;SDS011;62605;49.432;8.680;2023-03-16T02:53:13;5.13;;;3.03;;
10416;SDS011;62605;49.432;8.680;2023-03-16T02:55:50;6.27;;;2.93;;
10416;SDS011;62605;49.432;8.680;2023-03-16T02:58:35;3.40;;;2.20;;
10416;SDS011;62605;49.432;8.680;2023-03-16T03:01:25;6.57;;;3.77;;
10416;SDS011;62605;49.432;8.680;2023-03-16T03:13:35;3.53;;;2.90;;
10416;SDS011;62605;49.432;8.680;2023-03-16T03:16:04;3.57;;;2.43;;
10416;SDS011;62605;49.432;8.680;2023-03-16T03:19:00;4.40;;;2.73;;
10416;SDS011;62605;49.432;8.680;2023-03-16T03:21:45;3.47;;;2.50;;
10416;SDS011;62605;49.432;8.680;2023-03-16T03:24:23;2.90;;;2.13;;
10416;SDS011;62605;49.432;8.680;2023-03-16T03:27:03;3.10;;;2.37;;
10416;SDS011;62605;49.432;8.680;2023-03-16T03:29:33;4.40;;;2.27;;
10416;SDS011;62605;49.432;8.680;2023-03-16T03:32:09;3.07;;;1.93;;
10416;SDS011;62605;49.432;8.680;2023-03-16T03:34:56;2.77;;;1.77;;
10416;SDS011;62605;49.432;8.680;2023-03-16T03:37:30;1.80;;;1.43;;
10416;SDS011;62605;49.432;8.680;2023-03-16T03:40:12;2.67;;;1.63;;
10416;SDS011;62605;49.432;8.680;2023-03-16T03:46:00;2.43;;;1.93;;
10416;SDS011;62605;49.432;8.680;2023-03-16T03:48:35;1.87;;;1.53;;
10416;SDS011;62605;49.432;8.680;2023-03-16T03:57:13;2.47;;;1.67;;
10416;SDS011;62605;49.432;8.680;2023-03-16T04:00:13;1.30;;;1.20;;
10416;SDS011;62605;49.432;8.680;2023-03-16T04:21:35;2.23;;;1.10;;
10416;SDS011;62605;49.432;8.680;2023-03-16T04:26:51;1.37;;;1.10;;
10416;SDS011;62605;49.432;8.680;2023-03-16T04:29:56;2.23;;;1.20;;
10416;SDS011;62605;49.432;8.680;2023-03-16T04:32:43;1.67;;;1.40;;
10416;SDS011;62605;49.432;8.680;2023-03-16T04:35:24;7.00;;;1.77;;
10416;SDS011;62605;49.432;8.680;2023-03-16T04:38:21;2.83;;;1.73;;
10416;SDS011;62605;49.432;8.680;2023-03-16T04:41:15;1.90;;;1.53;;
10416;SDS011;62605;49.432;8.680;2023-03-16T04:44:04;2.10;;;1.90;;
10416;SDS011;62605;49.432;8.680;2023-03-16T04:46:31;2.40;;;1.63;;
10416;SDS011;62605;49.432;8.680;2023-03-16T04:49:19;2.27;;;1.60;;
10416;SDS011;62605;49.432;8.680;2023-03-16T04:52:05;4.50;;;2.50;;
10416;SDS011;62605;49.432;8.680;2023-03-16T04:57:01;1.63;;;1.30;;
10416;SDS011;62605;49.432;8.680;2023-03-16T04:59:34;3.67;;;1.63;;
10416;SDS011;62605;49.432;8.680;2023-03-16T05:02:21;5.07;;;2.50;;
10416;SDS011;62605;49.432;8.680;2023-03-16T05:08:25;2.90;;;2.00;;
10416;SDS011;62605;49.432;8.680;2023-03-16T05:11:10;2.80;;;1.87;;
10416;SDS011;62605;49.432;8.680;2023-03-16T05:13:52;3.47;;;2.47;;
10416;SDS011;62605;49.432;8.680;2023-03-16T05:16:24;1.97;;;1.77;;
10416;SDS011;62605;49.432;8.680;2023-03-16T05:19:06;2.77;;;1.97;;
10416;SDS011;62605;49.432;8.680;2023-03-16T05:21:45;2.73;;;1.87;;
10416;SDS011;62605;49.432;8.680;2023-03-16T05:32:30;4.23;;;2.00;;
10416;SDS011;62605;49.432;8.680;2023-03-16T05:35:13;2.27;;;1.70;;
10416;SDS011;62605;49.432;8.680;2023-03-16T05:40:46;2.53;;;2.33;;
10416;SDS011;62605;49.432;8.680;2023-03-16T05:43:28;2.10;;;1.70;;
10416;SDS011;62605;49.432;8.680;2023-03-16T05:46:18;3.20;;;2.03;;
10416;SDS011;62605;49.432;8.680;2023-03-16T05:48:58;2.53;;;2.10;;
10416;SDS011;62605;49.432;8.680;2023-03-16T05:51:42;2.60;;;2.13;;
10416;SDS011;62605;49.432;8.680;2023-03-16T05:54:19;3.93;;;2.50;;
10416;SDS011;62605;49.432;8.680;2023-03-16T05:57:10;3.33;;;2.10;;
10416;SDS011;62605;49.432;8.680;2023-03-16T05:59:51;2.47;;;2.03;;
10416;SDS011;62605;49.432;8.680;2023-03-16T06:23:26;3.70;;;2.57;;
10416;SDS011;62605;49.432;8.680;2023-03-16T06:39:19;2.13;;;1.93;;
10416;SDS011;62605;49.432;8.680;2023-03-16T06:45:59;5.03;;;3.17;;
10416;SDS011;62605;49.432;8.680;2023-03-16T06:48:44;5.20;;;2.60;;
10416;SDS011;62605;49.432;8.680;2023-03-16T06:57:49;3.53;;;2.50;;
10416;SDS011;62605;49.432;8.680;2023-03-16T07:00:31;4.50;;;2.00;;
10416;SDS011;62605;49.432;8.680;2023-03-16T07:06:23;5.47;;;2.90;;
10416;SDS011;62605;49.432;8.680;2023-03-16T07:08:52;7.23;;;3.17;;
10416;SDS011;62605;49.432;8.680;2023-03-16T07:11:21;4.50;;;2.37;;
10416;SDS011;62605;49.432;8.680;2023-03-16T07:13:50;2.90;;;2.20;;
10416;SDS011;62605;49.432;8.680;2023-03-16T07:16:16;2.27;;;2.07;;
10416;SDS011;62605;49.432;8.680;2023-03-16T07:18:44;4.17;;;3.10;;
10416;SDS011;62605;49.432;8.680;2023-03-16T07:21:12;4.43;;;3.03;;
10416;SDS011;62605;49.432;8.680;2023-03-16T07:23:40;3.10;;;2.10;;
10416;SDS011;62605;49.432;8.680;2023-03-16T07:26:08;6.17;;;2.50;;
10416;SDS011;62605;49.432;8.680;2023-03-16T07:28:39;3.33;;;2.40;;
10416;SDS011;62605;49.432;8.680;2023-03-16T07:31:08;5.57;;;2.70;;
10416;SDS011;62605;49.432;8.680;2023-03-16T07:33:36;3.63;;;2.40;;
10416;SDS011;62605;49.432;8.680;2023-03-16T07:36:04;2.53;;;1.60;;
10416;SDS011;62605;49.432;8.680;2023-03-16T07:38:33;6.50;;;2.60;;
10416;SDS011;62605;49.432;8.680;2023-03-16T07:41:00;4.07;;;2.77;;
10416;SDS011;62605;49.432;8.680;2023-03-16T07:43:27;3.80;;;2.37;;
10416;SDS011;62605;49.432;8.680;2023-03-16T07:45:54;7.10;;;3.07;;
10416;SDS011;62605;49.432;8.680;2023-03-16T07:48:23;5.13;;;3.30;;
10416;SDS011;62605;49.432;8.680;2023-03-16T07:50:50;5.93;;;2.80;;
10416;SDS011;62605;49.432;8.680;2023-03-16T07:53:18;3.20;;;2.80;;
10416;SDS011;62605;49.432;8.680;2023-03-16T07:55:45;3.27;;;2.33;;
10416;SDS011;62605;49.432;8.680;2023-03-16T07:58:13;5.37;;;2.93;;
10416;SDS011;62605;49.432;8.680;2023-03-16T08:00:40;3.67;;;2.57;;
10416;SDS011;62605;49.432;8.680;2023-03-16T08:03:07;2.80;;;2.23;;
10416;SDS011;62605;49.432;8.680;2023-03-16T08:05:37;3.47;;;2.27;;
10416;SDS011;62605;49.432;8.680;2023-03-16T08:08:04;3.90;;;2.70;;
10416;SDS011;62605;49.432;8.680;2023-03-16T08:10:33;6.20;;;3.07;;
10416;SDS011;62605;49.432;8.680;2023-03-16T08:13:01;4.80;;;2.50;;
10416;SDS011;62605;49.432;8.680;2023-03-16T08:15:29;3.83;;;2.43;;
10416;SDS011;62605;49.432;8.680;2023-03-16T08:17:57;2.50;;;2.13;;
10416;SDS011;62605;49.432;8.680;2023-03-16T08:20:26;3.00;;;2.20;;
10416;SDS011;62605;49.432;8.680;2023-03-16T08:22:55;4.13;;;2.70;;
10416;SDS011;62605;49.432;8.680;2023-03-16T08:25:22;7.30;;;3.17;;
10416;SDS011;62605;49.432;8.680;2023-03-16T08:27:50;3.33;;;2.47;;
10416;SDS011;62605;49.432;8.680;2023-03-16T08:30:18;4.27;;;2.93;;
10416;SDS011;62605;49.432;8.680;2023-03-16T08:32:46;3.83;;;2.83;;
10416;SDS011;62605;49.432;8.680;2023-03-16T08:35:14;3.13;;;2.33;;
10416;SDS011;62605;49.432;8.680;2023-03-16T08:37:42;3.27;;;2.47;;
10416;SDS011;62605;49.432;8.680;2023-03-16T08:40:11;4.47;;;2.57;;
10416;SDS011;62605;49.432;8.680;2023-03-16T08:42:40;5.00;;;3.20;;
10416;SDS011;62605;49.432;8.680;2023-03-16T08:45:09;2.93;;;2.10;;
10416;SDS011;62605;49.432;8.680;2023-03-16T08:47:37;3.37;;;2.33;;
10416;SDS011;62605;49.432;8.680;2023-03-16T08:50:05;3.30;;;2.27;;
10416;SDS011;62605;49.432;8.680;2023-03-16T08:52:33;3.73;;;2.27;;
10416;SDS011;62605;49.432;8.680;2023-03-16T08:55:02;1.57;;;1.43;;
10416;SDS011;62605;49.432;8.680;2023-03-16T08:57:31;2.60;;;2.03;;
10416;SDS011;62605;49.432;8.680;2023-03-16T08:59:58;3.53;;;2.37;;
10416;SDS011;62605;49.432;8.680;2023-03-16T09:02:27;3.60;;;2.20;;
10416;SDS011;62605;49.432;8.680;2023-03-16T09:04:55;6.07;;;2.20;;
10416;SDS011;62605;49.432;8.680;2023-03-16T09:07:23;2.73;;;2.03;;
10416;SDS011;62605;49.432;8.680;2023-03-16T09:09:50;3.57;;;2.20;;
10416;SDS011;62605;49.432;8.680;2023-03-16T09:12:19;2.30;;;1.73;;
10416;SDS011;62605;49.432;8.680;2023-03-16T09:14:49;2.10;;;1.70;;
10416;SDS011;62605;49.432;8.680;2023-03-16T09:17:16;2.60;;;2.27;;
10416;SDS011;62605;49.432;8.680;2023-03-16T09:19:45;2.03;;;1.83;;
10416;SDS011;62605;49.432;8.680;2023-03-16T09:22:12;2.97;;;2.40;;
10416;SDS011;62605;49.432;8.680;2023-03-16T09:24:39;2.53;;;2.10;;
10416;SDS011;62605;49.432;8.680;2023-03-16T09:27:06;2.23;;;1.80;;
10416;SDS011;62605;49.432;8.680;2023-03-16T09:29:33;4.40;;;2.77;;
10416;SDS011;62605;49.432;8.680;2023-03-16T09:32:02;2.73;;;2.33;;
10416;SDS011;62605;49.432;8.680;2023-03-16T09:34:30;2.70;;;2.37;;
10416;SDS011;62605;49.432;8.680;2023-03-16T09:36:58;4.97;;;2.53;;
10416;SDS011;62605;49.432;8.680;2023-03-16T09:39:25;4.50;;;2.60;;
10416;SDS011;62605;49.432;8.680;2023-03-16T09:41:53;2.80;;;2.00;;
10416;SDS011;62605;49.432;8.680;2023-03-16T09:44:31;2.87;;;2.20;;
10416;SDS011;62605;49.432;8.680;2023-03-16T09:47:06;3.70;;;2.27;;
10416;SDS011;62605;49.432;8.680;2023-03-16T09:49:36;3.10;;;2.30;;
10416;SDS011;62605;49.432;8.680;2023-03-16T09:52:10;5.03;;;1.80;;
10416;SDS011;62605;49.432;8.680;2023-03-16T09:54:47;4.23;;;2.53;;
10416;SDS011;62605;49.432;8.680;2023-03-16T09:57:21;2.70;;;2.10;;
10416;SDS011;62605;49.432;8.680;2023-03-16T09:59:52;3.93;;;2.87;;
10416;SDS011;62605;49.432;8.680;2023-03-16T10:02:44;5.83;;;2.67;;
10416;SDS011;62605;49.432;8.680;2023-03-16T10:05:21;3.10;;;2.30;;
10416;SDS011;62605;49.432;8.680;2023-03-16T10:07:52;2.73;;;2.33;;
10416;SDS011;62605;49.432;8.680;2023-03-16T10:13:40;2.83;;;1.80;;
10416;SDS011;62605;49.432;8.680;2023-03-16T10:16:12;3.50;;;2.20;;
10416;SDS011;62605;49.432;8.680;2023-03-16T10:18:44;2.97;;;2.30;;
10416;SDS011;62605;49.432;8.680;2023-03-16T10:21:14;8.17;;;2.63;;
10416;SDS011;62605;49.432;8.680;2023-03-16T10:23:44;3.43;;;2.20;;
10416;SDS011;62605;49.432;8.680;2023-03-16T10:26:14;3.50;;;2.47;;
10416;SDS011;62605;49.432;8.680;2023-03-16T10:28:46;3.73;;;2.50;;
10416;SDS011;62605;49.432;8.680;2023-03-16T10:31:13;2.87;;;2.40;;
10416;SDS011;62605;49.432;8.680;2023-03-16T10:33:45;3.00;;;2.33;;
10416;SDS011;62605;49.432;8.680;2023-03-16T10:36:17;3.80;;;2.40;;
10416;SDS011;62605;49.432;8.680;2023-03-16T10:38:51;2.50;;;1.77;;
10416;SDS011;62605;49.432;8.680;2023-03-16T10:41:20;2.97;;;2.23;;
10416;SDS011;62605;49.432;8.680;2023-03-16T10:43:51;2.80;;;2.20;;
10416;SDS011;62605;49.432;8.680;2023-03-16T10:46:21;3.87;;;2.00;;
10416;SDS011;62605;49.432;8.680;2023-03-16T10:48:54;5.10;;;2.40;;
10416;SDS011;62605;49.432;8.680;2023-03-16T10:51:25;2.03;;;1.83;;
10416;SDS011;62605;49.432;8.680;2023-03-16T10:53:56;2.20;;;2.00;;
10416;SDS011;62605;49.432;8.680;2023-03-16T10:56:38;4.30;;;2.30;;
10416;SDS011;62605;49.432;8.680;2023-03-16T10:59:12;1.83;;;1.67;;
10416;SDS011;62605;49.432;8.680;2023-03-16T11:01:43;2.80;;;2.03;;
10416;SDS011;62605;49.432;8.680;2023-03-16T11:04:14;4.10;;;2.00;;
10416;SDS011;62605;49.432;8.680;2023-03-16T11:06:50;5.47;;;2.33;;
10416;SDS011;62605;49.432;8.680;2023-03-16T11:09:20;1.83;;;1.70;;
10416;SDS011;62605;49.432;8.680;2023-03-16T11:11:52;3.50;;;2.03;;
10416;SDS011;62605;49.432;8.680;2023-03-16T11:14:20;3.00;;;2.20;;
10416;SDS011;62605;49.432;8.680;2023-03-16T11:16:53;4.67;;;1.77;;
10416;SDS011;62605;49.432;8.680;2023-03-16T11:19:28;5.43;;;2.40;;
10416;SDS011;62605;49.432;8.680;2023-03-16T11:21:58;2.30;;;2.10;;
10416;SDS011;62605;49.432;8.680;2023-03-16T11:24:29;2.10;;;1.80;;
10416;SDS011;62605;49.432;8.680;2023-03-16T11:27:03;3.00;;;1.87;;
10416;SDS011;62605;49.432;8.680;2023-03-16T11:29:42;3.57;;;1.80;;
10416;SDS011;62605;49.432;8.680;2023-03-16T11:32:24;3.93;;;1.83;;
10416;SDS011;62605;49.432;8.680;2023-03-16T11:34:56;3.13;;;2.07;;
10416;SDS011;62605;49.432;8.680;2023-03-16T11:37:36;4.50;;;2.30;;
10416;SDS011;62605;49.432;8.680;2023-03-16T11:40:28;3.63;;;2.20;;
10416;SDS011;62605;49.432;8.680;2023-03-16T11:43:05;2.80;;;2.30;;
10416;SDS011;62605;49.432;8.680;2023-03-16T11:45:54;5.10;;;2.07;;
10416;SDS011;62605;49.432;8.680;2023-03-16T11:48:34;2.10;;;1.90;;
10416;SDS011;62605;49.432;8.680;2023-03-16T11:51:10;3.37;;;1.73;;
10416;SDS011;62605;49.432;8.680;2023-03-16T11:53:48;2.37;;;1.90;;
10416;SDS011;62605;49.432;8.680;2023-03-16T11:56:26;2.83;;;1.83;;
10416;SDS011;62605;49.432;8.680;2023-03-16T11:59:02;3.37;;;1.80;;
10416;SDS011;62605;49.432;8.680;2023-03-16T12:01:50;2.50;;;1.73;;
10416;SDS011;62605;49.432;8.680;2023-03-16T12:04:41;3.13;;;1.97;;
10416;SDS011;62605;49.432;8.680;2023-03-16T12:07:22;1.87;;;1.73;;
10416;SDS011;62605;49.432;8.680;2023-03-16T12:10:02;2.23;;;1.63;;
10416;SDS011;62605;49.432;8.680;2023-03-16T12:12:52;3.10;;;2.13;;
10416;SDS011;62605;49.432;8.680;2023-03-16T12:15:34;1.93;;;1.77;;
10416;SDS011;62605;49.432;8.680;2023-03-16T12:18:09;1.90;;;1.70;;
10416;SDS011;62605;49.432;8.680;2023-03-16T12:20:43;3.00;;;1.67;;
10416;SDS011;62605;49.432;8.680;2023-03-16T12:23:17;2.20;;;2.00;;
10416;SDS011;62605;49.432;8.680;2023-03-16T12:25:48;2.00;;;1.67;;
10416;SDS011;62605;49.432;8.680;2023-03-16T12:28:20;2.13;;;1.93;;
10416;SDS011;62605;49.432;8.680;2023-03-16T12:31:01;3.30;;;2.03;;
10416;SDS011;62605;49.432;8.680;2023-03-16T12:33:38;1.90;;;1.50;;
10416;SDS011;62605;49.432;8.680;2023-03-16T12:36:30;3.40;;;2.10;;
10416;SDS011;62605;49.432;8.680;2023-03-16T12:39:38;2.03;;;1.77;;
10416;SDS011;62605;49.432;8.680;2023-03-16T13:18:22;2.27;;;1.60;;
10416;SDS011;62605;49.432;8.680;2023-03-16T13:21:00;2.87;;;2.00;;
10416;SDS011;62605;49.432;8.680;2023-03-16T13:23:51;2.23;;;1.70;;
10416;SDS011;62605;49.432;8.680;2023-03-16T13:26:37;4.33;;;2.10;;
10416;SDS011;62605;49.432;8.680;2023-03-16T13:29:14;2.70;;;2.00;;
10416;SDS011;62605;49.432;8.680;2023-03-16T13:31:48;2.07;;;1.80;;
10416;SDS011;62605;49.432;8.680;2023-03-16T13:37:02;3.70;;;1.73;;
10416;SDS011;62605;49.432;8.680;2023-03-16T13:39:38;3.33;;;1.77;;
10416;SDS011;62605;49.432;8.680;2023-03-16T13:42:12;2.87;;;2.00;;
10416;SDS011;62605;49.432;8.680;2023-03-16T13:44:42;2.53;;;2.33;;
10416;SDS011;62605;49.432;8.680;2023-03-16T13:47:11;2.97;;;2.23;;
10416;SDS011;62605;49.432;8.680;2023-03-16T13:49:45;2.53;;;1.93;;
10416;SDS011;62605;49.432;8.680;2023-03-16T13:52:13;2.57;;;1.97;;
10416;SDS011;62605;49.432;8.680;2023-03-16T13:54:47;2.67;;;1.90;;
10416;SDS011;62605;49.432;8.680;2023-03-16T13:57:15;2.13;;;1.80;;
10416;SDS011;62605;49.432;8.680;2023-03-16T13:59:46;2.27;;;1.90;;
10416;SDS011;62605;49.432;8.680;2023-03-16T14:02:15;2.50;;;1.80;;
10416;SDS011;62605;49.432;8.680;2023-03-16T14:04:46;2.63;;;1.80;;
10416;SDS011;62605;49.432;8.680;2023-03-16T14:07:14;2.90;;;2.00;;
10416;SDS011;62605;49.432;8.680;2023-03-16T14:09:45;2.93;;;1.80;;
10416;SDS011;62605;49.432;8.680;2023-03-16T14:12:15;2.40;;;1.67;;
10416;SDS011;62605;49.432;8.680;2023-03-16T14:14:45;2.27;;;1.83;;
10416;SDS011;62605;49.432;8.680;2023-03-16T14:17:15;2.10;;;1.73;;
10416;SDS011;62605;49.432;8.680;2023-03-16T14:19:47;1.60;;;1.50;;
10416;SDS011;62605;49.432;8.680;2023-03-16T14:22:17;2.63;;;1.57;;
10416;SDS011;62605;49.432;8.680;2023-03-16T14:24:50;5.53;;;1.90;;
10416;SDS011;62605;49.432;8.680;2023-03-16T14:27:24;2.57;;;1.50;;
10416;SDS011;62605;49.432;8.680;2023-03-16T14:29:57;1.77;;;1.50;;
10416;SDS011;62605;49.432;8.680;2023-03-16T14:32:26;2.30;;;1.40;;
10416;SDS011;62605;49.432;8.680;2023-03-16T14:35:12;2.07;;;1.50;;
10416;SDS011;62605;49.432;8.680;2023-03-16T14:37:42;3.80;;;1.80;;
10416;SDS011;62605;49.432;8.680;2023-03-16T14:40:20;1.70;;;1.60;;
10416;SDS011;62605;49.432;8.680;2023-03-16T14:42:49;2.50;;;1.60;;
10416;SDS011;62605;49.432;8.680;2023-03-16T14:45:18;2.17;;;1.57;;
10416;SDS011;62605;49.432;8.680;2023-03-16T14:47:47;1.80;;;1.30;;
10416;SDS011;62605;49.432;8.680;2023-03-16T14:50:22;1.90;;;1.40;;
10416;SDS011;62605;49.432;8.680;2023-03-16T14:52:50;1.67;;;1.33;;
10416;SDS011;62605;49.432;8.680;2023-03-16T14:55:21;2.97;;;1.13;;
10416;SDS011;62605;49.432;8.680;2023-03-16T14:57:51;2.80;;;1.50;;
10416;SDS011;62605;49.432;8.680;2023-03-16T15:00:22;0.83;;;0.83;;
10416;SDS011;62605;49.432;8.680;2023-03-16T15:02:53;1.77;;;1.27;;
10416;SDS011;62605;49.432;8.680;2023-03-16T15:05:30;2.60;;;1.43;;
10416;SDS011;62605;49.432;8.680;2023-03-16T15:07:59;2.27;;;1.10;;
10416;SDS011;62605;49.432;8.680;2023-03-16T15:10:28;2.70;;;1.13;;
10416;SDS011;62605;49.432;8.680;2023-03-16T15:12:58;1.57;;;1.23;;
10416;SDS011;62605;49.432;8.680;2023-03-16T15:15:38;4.27;;;1.50;;
10416;SDS011;62605;49.432;8.680;2023-03-16T15:18:06;1.10;;;1.00;;
10416;SDS011;62605;49.432;8.680;2023-03-16T15:20:38;1.97;;;1.40;;
10416;SDS011;62605;49.432;8.680;2023-03-16T15:23:08;1.47;;;1.00;;
10416;SDS011;62605;49.432;8.680;2023-03-16T15:25:39;1.77;;;1.10;;
10416;SDS011;62605;49.432;8.680;2023-03-16T15:28:11;2.93;;;1.30;;
10416;SDS011;62605;49.432;8.680;2023-03-16T15:30:41;0.90;;;0.90;;
10416;SDS011;62605;49.432;8.680;2023-03-16T15:33:09;0.80;;;0.80;;
10416;SDS011;62605;49.432;8.680;2023-03-16T15:35:38;2.03;;;1.30;;
10416;SDS011;62605;49.432;8.680;2023-03-16T15:38:06;1.17;;;1.00;;
10416;SDS011;62605;49.432;8.680;2023-03-16T15:40:39;1.67;;;0.97;;
10416;SDS011;62605;49.432;8.680;2023-03-16T15:43:10;1.83;;;1.00;;
10416;SDS011;62605;49.432;8.680;2023-03-16T15:45:38;1.60;;;0.93;;
10416;SDS011;62605;49.432;8.680;2023-03-16T15:48:05;1.83;;;0.87;;
10416;SDS011;62605;49.432;8.680;2023-03-16T15:50:32;1.20;;;0.70;;
10416;SDS011;62605;49.432;8.680;2023-03-16T15:53:03;1.70;;;1.10;;
10416;SDS011;62605;49.432;8.680;2023-03-16T15:55:34;1.07;;;1.00;;
10416;SDS011;62605;49.432;8.680;2023-03-16T15:58:03;0.80;;;0.80;;
10416;SDS011;62605;49.432;8.680;2023-03-16T16:00:31;1.83;;;1.13;;
10416;SDS011;62605;49.432;8.680;2023-03-16T16:03:00;1.30;;;1.00;;
10416;SDS011;62605;49.432;8.680;2023-03-16T16:05:28;0.83;;;0.60;;
10416;SDS011;62605;49.432;8.680;2023-03-16T16:07:56;1.10;;;1.00;;
10416;SDS011;62605;49.432;8.680;2023-03-16T16:10:25;2.53;;;1.00;;
10416;SDS011;62605;49.432;8.680;2023-03-16T16:12:53;1.40;;;0.83;;
10416;SDS011;62605;49.432;8.680;2023-03-16T16:15:21;0.97;;;0.57;;
10416;SDS011;62605;49.432;8.680;2023-03-16T16:17:51;1.70;;;0.77;;
10416;SDS011;62605;49.432;8.680;2023-03-16T16:20:20;1.00;;;0.97;;
10416;SDS011;62605;49.432;8.680;2023-03-16T16:22:50;1.57;;;0.90;;
10416;SDS011;62605;49.432;8.680;2023-03-16T16:25:18;0.63;;;0.63;;
10416;SDS011;62605;49.432;8.680;2023-03-16T16:27:49;1.47;;;0.80;;
10416;SDS011;62605;49.432;8.680;2023-03-16T16:30:18;0.57;;;0.57;;
10416;SDS011;62605;49.432;8.680;2023-03-16T16:32:47;2.10;;;0.90;;
10416;SDS011;62605;49.432;8.680;2023-03-16T16:35:15;0.90;;;0.90;;
10416;SDS011;62605;49.432;8.680;2023-03-16T16:37:43;1.30;;;0.87;;
10416;SDS011;62605;49.432;8.680;2023-03-16T16:40:15;0.77;;;0.73;;
10416;SDS011;62605;49.432;8.680;2023-03-16T16:42:44;1.40;;;0.80;;
10416;SDS011;62605;49.432;8.680;2023-03-16T16:45:17;3.20;;;1.20;;
10416;SDS011;62605;49.432;8.680;2023-03-16T16:47:46;0.80;;;0.77;;
10416;SDS011;62605;49.432;8.680;2023-03-16T16:50:18;2.10;;;1.00;;
10416;SDS011;62605;49.432;8.680;2023-03-16T16:52:47;1.47;;;1.00;;
10416;SDS011;62605;49.432;8.680;2023-03-16T16:55:15;1.07;;;0.97;;
10416;SDS011;62605;49.432;8.680;2023-03-16T16:57:43;1.10;;;1.00;;
10416;SDS011;62605;49.432;8.680;2023-03-16T17:00:14;1.30;;;1.20;;
10416;SDS011;62605;49.432;8.680;2023-03-16T17:02:48;1.47;;;1.10;;
10416;SDS011;62605;49.432;8.680;2023-03-16T17:05:18;1.83;;;1.00;;
10416;SDS011;62605;49.432;8.680;2023-03-16T17:07:46;1.10;;;1.00;;
10416;SDS011;62605;49.432;8.680;2023-03-16T17:10:15;1.73;;;1.27;;
10416;SDS011;62605;49.432;8.680;2023-03-16T17:12:43;0.80;;;0.80;;
10416;SDS011;62605;49.432;8.680;2023-03-16T17:17:56;2.53;;;1.40;;
10416;SDS011;62605;49.432;8.680;2023-03-16T17:20:27;2.63;;;1.33;;
10416;SDS011;62605;49.432;8.680;2023-03-16T17:22:55;1.13;;;1.03;;
10416;SDS011;62605;49.432;8.680;2023-03-16T17:25:22;3.80;;;1.10;;
10416;SDS011;62605;49.432;8.680;2023-03-16T17:27:50;2.73;;;1.10;;
10416;SDS011;62605;49.432;8.680;2023-03-16T17:30:22;1.30;;;1.10;;
10416;SDS011;62605;49.432;8.680;2023-03-16T17:32:55;1.50;;;1.17;;
10416;SDS011;62605;49.432;8.680;2023-03-16T17:35:27;3.10;;;1.10;;
10416;SDS011;62605;49.432;8.680;2023-03-16T17:37:55;1.40;;;1.07;;
10416;SDS011;62605;49.432;8.680;2023-03-16T17:40:22;1.33;;;1.20;;
10416;SDS011;62605;49.432;8.680;2023-03-16T17:42:51;3.43;;;1.10;;
10416;SDS011;62605;49.432;8.680;2023-03-16T17:45:21;2.43;;;1.40;;
10416;SDS011;62605;49.432;8.680;2023-03-16T17:47:50;1.30;;;1.10;;
10416;SDS011;62605;49.432;8.680;2023-03-16T17:50:21;1.87;;;1.13;;
10416;SDS011;62605;49.432;8.680;2023-03-16T17:52:52;2.40;;;1.30;;
10416;SDS011;62605;49.432;8.680;2023-03-16T17:55:29;1.57;;;1.27;;
10416;SDS011;62605;49.432;8.680;2023-03-16T17:57:58;1.03;;;1.03;;
10416;SDS011;62605;49.432;8.680;2023-03-16T18:00:26;1.60;;;1.17;;
10416;SDS011;62605;49.432;8.680;2023-03-16T18:02:56;1.40;;;1.10;;
10416;SDS011;62605;49.432;8.680;2023-03-16T18:05:32;3.03;;;1.00;;
10416;SDS011;62605;49.432;8.680;2023-03-16T18:08:05;3.17;;;1.23;;
10416;SDS011;62605;49.432;8.680;2023-03-16T18:10:38;1.27;;;1.00;;
10416;SDS011;62605;49.432;8.680;2023-03-16T18:13:06;1.40;;;1.10;;
10416;SDS011;62605;49.432;8.680;2023-03-16T18:15:41;2.00;;;1.00;;
10416;SDS011;62605;49.432;8.680;2023-03-16T18:18:09;1.90;;;1.10;;
10416;SDS011;62605;49.432;8.680;2023-03-16T18:20:44;1.40;;;0.93;;
10416;SDS011;62605;49.432;8.680;2023-03-16T18:23:13;1.00;;;1.00;;
10416;SDS011;62605;49.432;8.680;2023-03-16T18:25:42;1.33;;;1.00;;
10416;SDS011;62605;49.432;8.680;2023-03-16T18:28:10;1.33;;;1.23;;
10416;SDS011;62605;49.432;8.680;2023-03-16T18:30:40;1.70;;;1.13;;
10416;SDS011;62605;49.432;8.680;2023-03-16T18:33:16;1.10;;;1.07;;
10416;SDS011;62605;49.432;8.680;2023-03-16T18:35:52;1.93;;;1.30;;
10416;SDS011;62605;49.432;8.680;2023-03-16T18:38:23;1.57;;;1.30;;
10416;SDS011;62605;49.432;8.680;2023-03-16T18:40:54;1.23;;;1.13;;
10416;SDS011;62605;49.432;8.680;2023-03-16T18:43:22;2.13;;;1.20;;
10416;SDS011;62605;49.432;8.680;2023-03-16T18:45:50;1.10;;;1.00;;
10416;SDS011;62605;49.432;8.680;2023-03-16T18:48:21;1.27;;;1.17;;